createdAt,value
2023-03-06T00:03:33.707Z,4.63
2023-03-06T00:09:20.439Z,4.75
2023-03-06T00:15:08.397Z,5.20
2023-03-06T00:20:55.174Z,5.15
2023-03-06T00:26:42.046Z,4.10
2023-03-06T00:32:29.422Z,5.57
2023-03-06T00:38:16.196Z,5.95
2023-03-06T00:44:02.878Z,4.75
2023-03-06T00:49:50.652Z,6.22
2023-03-06T00:55:37.428Z,5.65
2023-03-06T01:01:27.173Z,6.47
2023-03-06T01:07:13.938Z,5.05
2023-03-06T01:13:00.753Z,5.78
2023-03-06T01:18:48.149Z,5.55
2023-03-06T01:24:35.789Z,6.80
2023-03-06T01:30:22.669Z,5.88
2023-03-06T01:36:12.377Z,5.78
2023-03-06T01:41:59.055Z,6.97
2023-03-06T01:47:45.966Z,4.95
2023-03-06T01:53:32.950Z,5.97
2023-03-06T01:59:21.922Z,5.65
2023-03-06T02:05:09.130Z,6.38
2023-03-06T02:11:09.412Z,5.60
2023-03-06T02:16:56.085Z,5.57
2023-03-06T02:23:03.934Z,6.10
2023-03-06T02:28:50.799Z,5.43
2023-03-06T02:34:37.629Z,6.60
2023-03-06T02:40:25.200Z,5.72
2023-03-06T02:46:13.807Z,6.20
2023-03-06T02:52:03.936Z,4.97
2023-03-06T02:57:51.332Z,5.18
2023-03-06T03:03:39.888Z,6.00
2023-03-06T03:09:26.963Z,5.25
2023-03-06T03:15:14.293Z,5.68
2023-03-06T03:21:01.628Z,5.88
2023-03-06T03:26:48.617Z,6.78
2023-03-06T03:32:38.474Z,6.03
2023-03-06T03:38:25.882Z,5.85
2023-03-06T03:44:14.448Z,5.63
2023-03-06T03:50:01.417Z,4.97
2023-03-06T03:55:49.164Z,5.65
2023-03-06T04:01:39.872Z,6.22
2023-03-06T04:07:27.757Z,5.03
2023-03-06T04:13:14.962Z,5.30
2023-03-06T04:19:05.060Z,5.93
2023-03-06T04:24:51.935Z,5.32
2023-03-06T04:30:39.934Z,4.63
2023-03-06T04:36:30.430Z,5.78
2023-03-06T04:42:24.047Z,5.57
2023-03-06T04:48:14.784Z,4.53
2023-03-06T04:54:01.437Z,4.85
2023-03-06T04:59:49.663Z,4.63
2023-03-06T05:05:36.659Z,4.13
2023-03-06T05:11:23.668Z,4.22
2023-03-06T05:17:10.762Z,3.92
2023-03-06T05:22:57.393Z,3.85
2023-03-06T05:28:44.248Z,4.05
2023-03-06T05:34:30.974Z,4.88
2023-03-06T05:40:18.619Z,4.53
2023-03-06T05:46:07.125Z,4.35
2023-03-06T05:51:54.193Z,4.05
2023-03-06T05:57:40.961Z,4.32
2023-03-06T06:03:27.936Z,4.40
2023-03-06T06:09:15.083Z,3.75
2023-03-06T06:15:01.925Z,4.70
2023-03-06T06:20:48.893Z,4.15
2023-03-06T06:26:35.746Z,3.53
2023-03-06T06:32:25.453Z,3.35
2023-03-06T06:38:15.988Z,4.38
2023-03-06T06:44:08.506Z,3.72
2023-03-06T06:49:56.471Z,3.83
2023-03-06T06:55:43.832Z,3.97
2023-03-06T07:01:31.058Z,4.95
2023-03-06T07:07:17.780Z,3.30
2023-03-06T07:13:04.464Z,3.42
2023-03-06T07:18:51.483Z,5.50
2023-03-06T07:24:39.529Z,6.97
2023-03-06T07:30:26.530Z,3.83
2023-03-06T07:36:13.994Z,4.53
2023-03-06T07:42:01.015Z,4.45
2023-03-06T07:47:50.767Z,3.97
2023-03-06T07:53:37.702Z,4.72
2023-03-06T07:59:25.736Z,4.07
2023-03-06T08:05:15.171Z,3.70
2023-03-06T08:11:05.187Z,3.78
2023-03-06T08:16:54.039Z,3.08
2023-03-06T08:24:19.295Z,3.60
2023-03-06T08:30:08.877Z,5.53
2023-03-06T08:36:01.349Z,3.50
2023-03-06T08:41:52.694Z,4.47
2023-03-06T08:47:44.560Z,3.85
2023-03-06T08:53:42.679Z,3.83
2023-03-06T08:59:31.569Z,4.03
2023-03-06T09:05:40.300Z,3.25
2023-03-06T09:11:32.077Z,3.28
2023-03-06T09:17:21.867Z,4.80
2023-03-06T09:23:10.302Z,3.55
2023-03-06T09:29:21.391Z,4.80
2023-03-06T09:35:10.052Z,3.53
2023-03-06T09:41:02.655Z,4.07
2023-03-06T09:54:30.446Z,3.63
2023-03-06T10:00:26.608Z,3.65
2023-03-06T10:06:33.787Z,3.95
2023-03-06T10:12:28.807Z,3.50
2023-03-06T10:18:17.204Z,3.80
2023-03-06T10:24:31.344Z,3.97
2023-03-06T10:37:40.882Z,4.35
2023-03-06T10:43:28.280Z,4.20
2023-03-06T10:49:26.493Z,3.80
2023-03-06T10:55:37.946Z,4.00
2023-03-06T11:01:33.676Z,3.20
2023-03-06T11:07:41.142Z,3.67
2023-03-06T11:13:35.568Z,3.22
2023-03-06T11:19:32.929Z,2.45
2023-03-06T11:26:29.051Z,3.80
2023-03-06T11:32:59.967Z,2.70
2023-03-06T11:38:52.644Z,3.53
2023-03-06T11:44:50.573Z,3.38
2023-03-06T11:50:41.499Z,3.15
2023-03-06T11:56:44.375Z,2.58
2023-03-06T12:02:46.663Z,2.30
2023-03-06T12:08:58.608Z,2.40
2023-03-06T12:15:05.783Z,2.20
2023-03-06T12:21:08.844Z,1.63
2023-03-06T12:27:30.778Z,1.70
2023-03-06T12:33:46.972Z,2.17
2023-03-06T12:39:40.737Z,1.58
2023-03-06T12:45:34.302Z,1.73
2023-03-06T12:51:21.588Z,1.70
2023-03-06T12:57:09.592Z,1.95
2023-03-06T13:03:28.686Z,2.10
2023-03-06T13:10:00.371Z,1.92
2023-03-06T13:16:09.895Z,2.20
2023-03-06T13:21:56.769Z,1.90
2023-03-06T13:27:55.694Z,2.10
2023-03-06T13:33:54.656Z,1.67
2023-03-06T13:40:00.648Z,2.05
2023-03-06T13:45:48.922Z,2.20
2023-03-06T13:51:57.461Z,2.50
2023-03-06T13:58:32.095Z,2.33
2023-03-06T14:04:46.708Z,1.73
2023-03-06T14:10:35.883Z,1.92
2023-03-06T14:16:24.253Z,1.80
2023-03-06T14:22:21.158Z,1.77
2023-03-06T14:28:29.107Z,1.75
2023-03-06T14:35:20.097Z,2.22
2023-03-06T14:41:41.060Z,2.03
2023-03-06T14:47:42.470Z,2.20
2023-03-06T14:53:35.339Z,2.53
2023-03-06T14:59:28.996Z,2.30
2023-03-06T15:05:30.357Z,2.53
2023-03-06T15:11:17.700Z,3.47
2023-03-06T15:17:23.372Z,2.83
2023-03-06T15:23:21.254Z,1.70
2023-03-06T15:29:10.010Z,1.60
2023-03-06T15:35:28.504Z,1.10
2023-03-06T15:41:31.744Z,1.23
2023-03-06T15:47:19.338Z,1.40
2023-03-06T15:53:34.801Z,0.98
2023-03-06T16:06:01.361Z,1.30
2023-03-06T16:11:55.906Z,1.20
2023-03-06T16:25:08.884Z,0.95
2023-03-06T16:30:55.748Z,1.00
2023-03-06T16:36:42.613Z,1.08
2023-03-06T16:42:34.108Z,0.93
2023-03-06T16:48:21.501Z,1.80
2023-03-06T16:54:10.263Z,2.25
2023-03-06T16:59:57.002Z,1.15
2023-03-06T17:05:44.212Z,2.00
2023-03-06T17:11:31.179Z,1.60
2023-03-06T17:17:18.002Z,1.10
2023-03-06T17:23:06.817Z,1.15
2023-03-06T17:29:06.842Z,1.60
2023-03-06T17:34:54.671Z,1.33
2023-03-06T17:40:41.839Z,1.50
2023-03-06T17:46:28.836Z,1.73
2023-03-06T17:52:18.933Z,1.30
2023-03-06T17:58:07.257Z,1.52
2023-03-06T18:03:54.914Z,1.63
2023-03-06T18:09:47.082Z,1.52
2023-03-06T18:15:34.001Z,1.33
2023-03-06T18:21:21.798Z,6.70
2023-03-06T18:27:09.867Z,4.40
2023-03-06T18:32:56.492Z,2.70
2023-03-06T18:38:45.548Z,1.20
2023-03-06T18:44:32.311Z,1.48
2023-03-06T18:50:20.041Z,1.63
2023-03-06T18:56:16.751Z,1.60
2023-03-06T19:02:03.829Z,1.20
2023-03-06T19:07:50.709Z,1.20
2023-03-06T19:13:39.200Z,1.10
2023-03-06T19:19:26.468Z,0.95
2023-03-06T19:25:13.067Z,1.00
2023-03-06T19:31:00.640Z,1.25
2023-03-06T19:36:50.473Z,1.92
2023-03-06T19:42:37.304Z,1.00
2023-03-06T19:48:24.387Z,1.15
2023-03-06T19:54:12.657Z,4.45
2023-03-06T19:59:59.450Z,0.95
2023-03-06T20:05:47.726Z,1.63
2023-03-06T20:11:35.209Z,1.30
2023-03-06T20:17:21.905Z,1.30
2023-03-06T20:23:08.882Z,1.65
2023-03-06T20:28:56.954Z,2.10
2023-03-06T20:34:44.573Z,3.17
2023-03-06T20:40:31.196Z,2.65
2023-03-06T20:46:18.641Z,2.03
2023-03-06T20:52:05.561Z,2.28
2023-03-06T20:57:52.733Z,2.00
2023-03-06T21:03:43.435Z,1.23
2023-03-06T21:09:42.198Z,1.67
2023-03-06T21:15:32.369Z,1.55
2023-03-06T21:21:24.211Z,1.50
2023-03-06T21:27:19.618Z,2.03
2023-03-06T21:33:11.148Z,1.27
2023-03-06T21:39:07.355Z,2.37
2023-03-06T21:44:57.078Z,1.73
2023-03-06T21:50:43.934Z,1.40
2023-03-06T21:56:33.429Z,1.55
2023-03-06T22:02:20.349Z,1.20
2023-03-06T22:08:33.047Z,1.45
2023-03-06T22:14:42.309Z,1.50
2023-03-06T22:21:12.851Z,1.70
2023-03-06T22:26:59.830Z,1.80
2023-03-06T22:32:46.715Z,1.65
2023-03-06T22:38:39.566Z,1.15
2023-03-06T22:44:26.500Z,1.30
2023-03-06T22:50:13.409Z,1.88
2023-03-06T22:56:11.302Z,1.63
2023-03-06T23:09:47.281Z,0.90
2023-03-06T23:15:52.691Z,1.30
2023-03-06T23:21:57.983Z,1.10
2023-03-06T23:28:03.622Z,1.52
2023-03-06T23:33:51.611Z,1.10
2023-03-06T23:41:38.275Z,0.90
2023-03-06T23:46:08.989Z,1.40
2023-03-06T23:51:55.905Z,1.20
2023-03-06T23:57:42.630Z,1.00
